sensor_id;sensor_type;location;lat;lon;timestamp;pressure;altitude;pressure_sealevel;temperature;humidity
46682;BME280;34101;53.430;-2.224;2023-08-06T00:00:00;101023.32;;;14.03;77.37
46682;BME280;34101;53.430;-2.224;2023-08-06T00:02:28;101018.29;;;14.10;77.41
46682;BME280;34101;53.430;-2.224;2023-08-06T00:04:55;101018.01;;;14.18;77.31
46682;BME280;34101;53.430;-2.224;2023-08-06T00:07:22;101021.53;;;14.26;77.08
46682;BME280;34101;53.430;-2.224;2023-08-06T00:09:50;101026.59;;;14.33;76.80
46682;BME280;34101;53.430;-2.224;2023-08-06T00:12:17;101026.79;;;14.39;76.39
46682;BME280;34101;53.430;-2.224;2023-08-06T00:14:45;101029.98;;;14.43;76.19
46682;BME280;34101;53.430;-2.224;2023-08-06T00:17:12;101030.94;;;14.48;76.25
46682;BME280;34101;53.430;-2.224;2023-08-06T00:19:40;101026.68;;;14.52;76.07
46682;BME280;34101;53.430;-2.224;2023-08-06T00:22:07;101027.96;;;14.57;75.72
46682;BME280;34101;53.430;-2.224;2023-08-06T00:24:35;101033.48;;;14.60;75.84
46682;BME280;34101;53.430;-2.224;2023-08-06T00:27:02;101032.11;;;14.61;75.63
46682;BME280;34101;53.430;-2.224;2023-08-06T00:29:30;101029.20;;;14.63;75.64
46682;BME280;34101;53.430;-2.224;2023-08-06T00:31:57;101034.37;;;14.66;75.83
46682;BME280;34101;53.430;-2.224;2023-08-06T00:34:25;101031.29;;;14.69;75.56
46682;BME280;34101;53.430;-2.224;2023-08-06T00:36:52;101030.48;;;14.64;75.70
46682;BME280;34101;53.430;-2.224;2023-08-06T00:39:19;101031.77;;;14.70;75.73
46682;BME280;34101;53.430;-2.224;2023-08-06T00:41:46;101033.64;;;14.69;75.43
46682;BME280;34101;53.430;-2.224;2023-08-06T00:44:14;101037.67;;;14.70;75.38
46682;BME280;34101;53.430;-2.224;2023-08-06T00:46:41;101039.57;;;14.72;75.43
46682;BME280;34101;53.430;-2.224;2023-08-06T00:49:09;101039.38;;;14.68;74.84
46682;BME280;34101;53.430;-2.224;2023-08-06T00:51:37;101039.04;;;14.68;74.68
46682;BME280;34101;53.430;-2.224;2023-08-06T00:54:04;101040.48;;;14.69;74.17
46682;BME280;34101;53.430;-2.224;2023-08-06T00:56:33;101043.34;;;14.71;74.50
46682;BME280;34101;53.430;-2.224;2023-08-06T00:59:01;101046.36;;;14.73;74.47
46682;BME280;34101;53.430;-2.224;2023-08-06T01:01:30;101047.22;;;14.75;74.48
46682;BME280;34101;53.430;-2.224;2023-08-06T01:03:57;101047.30;;;14.72;74.62
46682;BME280;34101;53.430;-2.224;2023-08-06T01:06:35;101045.89;;;14.72;74.61
46682;BME280;34101;53.430;-2.224;2023-08-06T01:09:15;101050.45;;;14.63;74.26
46682;BME280;34101;53.430;-2.224;2023-08-06T01:11:57;101058.18;;;14.56;74.75
46682;BME280;34101;53.430;-2.224;2023-08-06T01:14:31;101058.75;;;14.65;74.74
46682;BME280;34101;53.430;-2.224;2023-08-06T01:16:59;101057.40;;;14.66;74.48
46682;BME280;34101;53.430;-2.224;2023-08-06T01:19:28;101057.35;;;14.68;74.38
46682;BME280;34101;53.430;-2.224;2023-08-06T01:21:55;101058.43;;;14.70;74.35
46682;BME280;34101;53.430;-2.224;2023-08-06T01:24:23;101062.97;;;14.65;74.35
46682;BME280;34101;53.430;-2.224;2023-08-06T01:26:57;101060.10;;;14.58;74.27
46682;BME280;34101;53.430;-2.224;2023-08-06T01:29:31;101061.76;;;14.54;74.59
46682;BME280;34101;53.430;-2.224;2023-08-06T01:32:02;101066.14;;;14.51;74.02
46682;BME280;34101;53.430;-2.224;2023-08-06T01:34:32;101067.52;;;14.39;74.50
46682;BME280;34101;53.430;-2.224;2023-08-06T01:37:01;101071.67;;;14.46;74.92
46682;BME280;34101;53.430;-2.224;2023-08-06T01:39:30;101070.31;;;14.40;74.39
46682;BME280;34101;53.430;-2.224;2023-08-06T01:42:00;101072.16;;;14.38;74.78
46682;BME280;34101;53.430;-2.224;2023-08-06T01:44:27;101077.01;;;14.37;74.75
46682;BME280;34101;53.430;-2.224;2023-08-06T01:46:54;101078.91;;;14.42;75.14
46682;BME280;34101;53.430;-2.224;2023-08-06T01:49:22;101079.96;;;14.46;75.17
46682;BME280;34101;53.430;-2.224;2023-08-06T01:51:49;101083.32;;;14.49;74.90
46682;BME280;34101;53.430;-2.224;2023-08-06T01:54:17;101082.72;;;14.41;74.98
46682;BME280;34101;53.430;-2.224;2023-08-06T01:56:44;101081.20;;;14.32;74.80
46682;BME280;34101;53.430;-2.224;2023-08-06T01:59:12;101079.84;;;14.34;74.71
46682;BME280;34101;53.430;-2.224;2023-08-06T02:02:41;101084.16;;;14.36;74.65
46682;BME280;34101;53.430;-2.224;2023-08-06T02:05:09;101081.82;;;14.33;74.84
46682;BME280;34101;53.430;-2.224;2023-08-06T02:07:37;101083.56;;;14.38;75.12
46682;BME280;34101;53.430;-2.224;2023-08-06T02:10:06;101083.45;;;14.41;74.88
46682;BME280;34101;53.430;-2.224;2023-08-06T02:12:33;101082.99;;;14.44;75.14
46682;BME280;34101;53.430;-2.224;2023-08-06T02:15:01;101081.13;;;14.46;75.06
46682;BME280;34101;53.430;-2.224;2023-08-06T02:17:29;101081.17;;;14.48;74.85
46682;BME280;34101;53.430;-2.224;2023-08-06T02:19:56;101082.59;;;14.46;74.98
46682;BME280;34101;53.430;-2.224;2023-08-06T02:22:23;101081.13;;;14.44;74.54
46682;BME280;34101;53.430;-2.224;2023-08-06T02:24:51;101081.97;;;14.42;74.47
46682;BME280;34101;53.430;-2.224;2023-08-06T02:27:18;101089.69;;;14.41;74.72
46682;BME280;34101;53.430;-2.224;2023-08-06T02:29:45;101087.55;;;14.41;74.88
46682;BME280;34101;53.430;-2.224;2023-08-06T02:32:13;101088.25;;;14.42;75.18
46682;BME280;34101;53.430;-2.224;2023-08-06T02:34:41;101082.65;;;14.46;75.08
46682;BME280;34101;53.430;-2.224;2023-08-06T02:37:08;101082.73;;;14.49;74.94
46682;BME280;34101;53.430;-2.224;2023-08-06T02:39:36;101087.25;;;14.45;74.81
46682;BME280;34101;53.430;-2.224;2023-08-06T02:42:04;101086.95;;;14.44;75.22
46682;BME280;34101;53.430;-2.224;2023-08-06T02:44:32;101090.27;;;14.47;74.98
46682;BME280;34101;53.430;-2.224;2023-08-06T02:46:59;101089.98;;;14.51;74.91
46682;BME280;34101;53.430;-2.224;2023-08-06T02:49:27;101092.77;;;14.48;74.78
46682;BME280;34101;53.430;-2.224;2023-08-06T02:51:54;101093.38;;;14.46;74.58
46682;BME280;34101;53.430;-2.224;2023-08-06T02:54:21;101091.70;;;14.46;74.47
46682;BME280;34101;53.430;-2.224;2023-08-06T02:56:49;101091.98;;;14.45;74.75
46682;BME280;34101;53.430;-2.224;2023-08-06T02:59:16;101091.06;;;14.49;74.53
46682;BME280;34101;53.430;-2.224;2023-08-06T03:01:44;101090.07;;;14.51;74.56
46682;BME280;34101;53.430;-2.224;2023-08-06T03:04:11;101087.81;;;14.50;74.28
46682;BME280;34101;53.430;-2.224;2023-08-06T03:06:39;101090.16;;;14.49;74.47
46682;BME280;34101;53.430;-2.224;2023-08-06T03:09:06;101089.48;;;14.47;74.61
46682;BME280;34101;53.430;-2.224;2023-08-06T03:11:34;101093.90;;;14.52;74.57
46682;BME280;34101;53.430;-2.224;2023-08-06T03:14:01;101095.44;;;14.44;74.37
46682;BME280;34101;53.430;-2.224;2023-08-06T03:16:29;101096.14;;;14.33;75.04
46682;BME280;34101;53.430;-2.224;2023-08-06T03:18:57;101098.01;;;14.31;75.69
46682;BME280;34101;53.430;-2.224;2023-08-06T03:21:25;101097.53;;;14.35;75.59
46682;BME280;34101;53.430;-2.224;2023-08-06T03:23:52;101098.46;;;14.33;75.66
46682;BME280;34101;53.430;-2.224;2023-08-06T03:26:19;101097.44;;;14.34;76.15
46682;BME280;34101;53.430;-2.224;2023-08-06T03:28:46;101094.54;;;14.33;75.69
46682;BME280;34101;53.430;-2.224;2023-08-06T03:31:14;101094.49;;;14.36;75.90
46682;BME280;34101;53.430;-2.224;2023-08-06T03:33:43;101097.51;;;14.40;75.92
46682;BME280;34101;53.430;-2.224;2023-08-06T03:36:11;101093.78;;;14.43;75.88
46682;BME280;34101;53.430;-2.224;2023-08-06T03:38:38;101093.30;;;14.44;75.68
46682;BME280;34101;53.430;-2.224;2023-08-06T03:41:06;101097.23;;;14.47;75.66
46682;BME280;34101;53.430;-2.224;2023-08-06T03:43:33;101098.92;;;14.50;75.62
46682;BME280;34101;53.430;-2.224;2023-08-06T03:46:00;101098.25;;;14.48;75.56
46682;BME280;34101;53.430;-2.224;2023-08-06T03:48:28;101097.84;;;14.49;75.61
46682;BME280;34101;53.430;-2.224;2023-08-06T03:50:55;101098.99;;;14.52;75.20
46682;BME280;34101;53.430;-2.224;2023-08-06T03:53:23;101100.96;;;14.47;74.70
46682;BME280;34101;53.430;-2.224;2023-08-06T03:55:50;101102.85;;;14.37;75.06
46682;BME280;34101;53.430;-2.224;2023-08-06T03:58:18;101101.13;;;14.34;75.39
46682;BME280;34101;53.430;-2.224;2023-08-06T04:00:45;101101.42;;;14.30;75.59
46682;BME280;34101;53.430;-2.224;2023-08-06T04:03:12;101098.39;;;14.28;75.60
46682;BME280;34101;53.430;-2.224;2023-08-06T04:05:40;101097.13;;;14.29;75.61
46682;BME280;34101;53.430;-2.224;2023-08-06T04:08:07;101097.96;;;14.32;75.53
46682;BME280;34101;53.430;-2.224;2023-08-06T04:10:34;101101.52;;;14.30;75.41
46682;BME280;34101;53.430;-2.224;2023-08-06T04:13:02;101102.90;;;14.31;75.38
46682;BME280;34101;53.430;-2.224;2023-08-06T04:15:29;101105.69;;;14.35;75.41
46682;BME280;34101;53.430;-2.224;2023-08-06T04:17:56;101106.37;;;14.36;75.29
46682;BME280;34101;53.430;-2.224;2023-08-06T04:20:24;101104.79;;;14.36;75.37
46682;BME280;34101;53.430;-2.224;2023-08-06T04:22:55;101108.71;;;14.39;75.28
46682;BME280;34101;53.430;-2.224;2023-08-06T04:25:21;101110.77;;;14.39;75.11
46682;BME280;34101;53.430;-2.224;2023-08-06T04:27:49;101110.63;;;14.38;75.06
46682;BME280;34101;53.430;-2.224;2023-08-06T04:30:16;101111.55;;;14.38;75.13
46682;BME280;34101;53.430;-2.224;2023-08-06T04:32:44;101115.30;;;14.40;75.08
46682;BME280;34101;53.430;-2.224;2023-08-06T04:35:11;101115.06;;;14.38;75.06
46682;BME280;34101;53.430;-2.224;2023-08-06T04:37:39;101120.12;;;14.38;75.16
46682;BME280;34101;53.430;-2.224;2023-08-06T04:40:07;101117.93;;;14.33;75.21
46682;BME280;34101;53.430;-2.224;2023-08-06T04:42:34;101116.78;;;14.34;75.02
46682;BME280;34101;53.430;-2.224;2023-08-06T04:45:02;101120.06;;;14.35;75.26
46682;BME280;34101;53.430;-2.224;2023-08-06T04:47:30;101124.31;;;14.36;75.24
46682;BME280;34101;53.430;-2.224;2023-08-06T04:49:57;101129.47;;;14.38;75.15
46682;BME280;34101;53.430;-2.224;2023-08-06T04:52:25;101127.76;;;14.39;75.51
46682;BME280;34101;53.430;-2.224;2023-08-06T04:54:52;101130.18;;;14.39;75.36
46682;BME280;34101;53.430;-2.224;2023-08-06T04:57:20;101135.84;;;14.39;75.13
46682;BME280;34101;53.430;-2.224;2023-08-06T04:59:47;101137.00;;;14.39;75.12
46682;BME280;34101;53.430;-2.224;2023-08-06T05:02:15;101135.64;;;14.40;75.24
46682;BME280;34101;53.430;-2.224;2023-08-06T05:04:43;101138.25;;;14.40;75.06
46682;BME280;34101;53.430;-2.224;2023-08-06T05:07:10;101139.07;;;14.35;75.09
46682;BME280;34101;53.430;-2.224;2023-08-06T05:09:38;101141.06;;;14.32;75.32
46682;BME280;34101;53.430;-2.224;2023-08-06T05:12:06;101143.17;;;14.20;75.17
46682;BME280;34101;53.430;-2.224;2023-08-06T05:14:34;101147.31;;;14.20;75.72
46682;BME280;34101;53.430;-2.224;2023-08-06T05:17:01;101151.32;;;14.21;75.90
46682;BME280;34101;53.430;-2.224;2023-08-06T05:19:29;101152.54;;;14.15;75.83
46682;BME280;34101;53.430;-2.224;2023-08-06T05:21:57;101155.23;;;14.20;75.90
46682;BME280;34101;53.430;-2.224;2023-08-06T05:24:24;101157.51;;;14.19;75.92
46682;BME280;34101;53.430;-2.224;2023-08-06T05:26:52;101159.71;;;14.23;75.53
46682;BME280;34101;53.430;-2.224;2023-08-06T05:29:19;101161.99;;;14.18;75.60
46682;BME280;34101;53.430;-2.224;2023-08-06T05:31:46;101162.44;;;14.19;75.85
46682;BME280;34101;53.430;-2.224;2023-08-06T05:34:14;101164.07;;;14.27;76.11
46682;BME280;34101;53.430;-2.224;2023-08-06T05:36:41;101163.82;;;14.33;75.77
46682;BME280;34101;53.430;-2.224;2023-08-06T05:39:09;101163.15;;;14.27;75.68
46682;BME280;34101;53.430;-2.224;2023-08-06T05:41:36;101164.87;;;14.29;75.95
46682;BME280;34101;53.430;-2.224;2023-08-06T05:44:04;101169.72;;;14.37;75.95
46682;BME280;34101;53.430;-2.224;2023-08-06T05:46:31;101173.94;;;14.46;75.55
46682;BME280;34101;53.430;-2.224;2023-08-06T05:48:59;101176.06;;;14.39;75.42
46682;BME280;34101;53.430;-2.224;2023-08-06T05:51:27;101177.34;;;14.40;75.88
46682;BME280;34101;53.430;-2.224;2023-08-06T05:53:54;101180.14;;;14.37;75.61
46682;BME280;34101;53.430;-2.224;2023-08-06T05:56:22;101183.46;;;14.49;75.73
46682;BME280;34101;53.430;-2.224;2023-08-06T05:58:48;101183.62;;;14.58;75.56
46682;BME280;34101;53.430;-2.224;2023-08-06T06:01:16;101186.25;;;14.53;75.38
46682;BME280;34101;53.430;-2.224;2023-08-06T06:03:43;101187.47;;;14.60;75.44
46682;BME280;34101;53.430;-2.224;2023-08-06T06:06:11;101193.88;;;14.56;74.82
46682;BME280;34101;53.430;-2.224;2023-08-06T06:08:38;101193.71;;;14.60;74.89
46682;BME280;34101;53.430;-2.224;2023-08-06T06:11:05;101192.72;;;14.60;75.25
46682;BME280;34101;53.430;-2.224;2023-08-06T06:13:33;101192.38;;;14.52;75.27
46682;BME280;34101;53.430;-2.224;2023-08-06T06:16:00;101192.13;;;14.46;75.36
46682;BME280;34101;53.430;-2.224;2023-08-06T06:18:27;101195.68;;;14.60;75.06
46682;BME280;34101;53.430;-2.224;2023-08-06T06:20:55;101193.96;;;14.70;75.09
46682;BME280;34101;53.430;-2.224;2023-08-06T06:23:22;101195.79;;;14.75;74.69
46682;BME280;34101;53.430;-2.224;2023-08-06T06:25:50;101196.00;;;14.81;74.98
46682;BME280;34101;53.430;-2.224;2023-08-06T06:28:17;101196.67;;;14.87;74.68
46682;BME280;34101;53.430;-2.224;2023-08-06T06:30:45;101195.89;;;14.98;74.73
46682;BME280;34101;53.430;-2.224;2023-08-06T06:33:12;101195.51;;;15.03;74.13
46682;BME280;34101;53.430;-2.224;2023-08-06T06:35:39;101198.45;;;15.01;74.40
46682;BME280;34101;53.430;-2.224;2023-08-06T06:38:07;101201.44;;;15.02;73.96
46682;BME280;34101;53.430;-2.224;2023-08-06T06:40:34;101202.80;;;15.03;74.15
46682;BME280;34101;53.430;-2.224;2023-08-06T06:43:01;101207.92;;;15.02;74.17
46682;BME280;34101;53.430;-2.224;2023-08-06T06:45:29;101211.44;;;15.08;74.41
46682;BME280;34101;53.430;-2.224;2023-08-06T06:47:57;101213.39;;;15.19;73.85
46682;BME280;34101;53.430;-2.224;2023-08-06T06:50:24;101212.93;;;15.22;73.55
46682;BME280;34101;53.430;-2.224;2023-08-06T06:52:52;101217.31;;;15.12;73.34
46682;BME280;34101;53.430;-2.224;2023-08-06T06:55:19;101220.87;;;15.00;74.47
46682;BME280;34101;53.430;-2.224;2023-08-06T06:57:47;101223.79;;;14.67;75.94
46682;BME280;34101;53.430;-2.224;2023-08-06T07:00:14;101226.33;;;14.77;75.73
46682;BME280;34101;53.430;-2.224;2023-08-06T07:02:42;101225.90;;;15.22;74.41
46682;BME280;34101;53.430;-2.224;2023-08-06T07:05:11;101228.08;;;15.46;73.96
46682;BME280;34101;53.430;-2.224;2023-08-06T07:07:38;101233.48;;;15.48;72.87
46682;BME280;34101;53.430;-2.224;2023-08-06T07:10:06;101232.70;;;15.68;72.70
46682;BME280;34101;53.430;-2.224;2023-08-06T07:12:34;101230.56;;;15.73;72.54
46682;BME280;34101;53.430;-2.224;2023-08-06T07:15:01;101230.39;;;15.89;71.61
46682;BME280;34101;53.430;-2.224;2023-08-06T07:17:28;101231.14;;;16.08;71.31
46682;BME280;34101;53.430;-2.224;2023-08-06T07:19:56;101234.44;;;16.26;70.64
46682;BME280;34101;53.430;-2.224;2023-08-06T07:22:23;101237.53;;;16.25;70.72
46682;BME280;34101;53.430;-2.224;2023-08-06T07:24:50;101237.60;;;16.37;70.18
46682;BME280;34101;53.430;-2.224;2023-08-06T07:27:18;101237.97;;;16.39;69.89
46682;BME280;34101;53.430;-2.224;2023-08-06T07:29:45;101238.05;;;16.34;70.33
46682;BME280;34101;53.430;-2.224;2023-08-06T07:32:13;101238.07;;;16.43;70.34
46682;BME280;34101;53.430;-2.224;2023-08-06T07:34:40;101237.07;;;16.12;70.04
46682;BME280;34101;53.430;-2.224;2023-08-06T07:37:08;101239.03;;;16.36;70.67
46682;BME280;34101;53.430;-2.224;2023-08-06T07:39:35;101237.86;;;16.46;69.48
46682;BME280;34101;53.430;-2.224;2023-08-06T07:42:03;101238.11;;;16.36;69.97
46682;BME280;34101;53.430;-2.224;2023-08-06T07:44:31;101236.02;;;16.44;70.08
46682;BME280;34101;53.430;-2.224;2023-08-06T07:46:58;101236.30;;;16.35;69.97
46682;BME280;34101;53.430;-2.224;2023-08-06T07:49:27;101241.26;;;16.25;70.24
46682;BME280;34101;53.430;-2.224;2023-08-06T07:51:54;101235.32;;;16.63;70.39
46682;BME280;34101;53.430;-2.224;2023-08-06T07:54:21;101237.49;;;16.91;69.46
46682;BME280;34101;53.430;-2.224;2023-08-06T07:56:49;101238.59;;;17.13;68.84
46682;BME280;34101;53.430;-2.224;2023-08-06T07:59:16;101236.80;;;17.07;68.07
46682;BME280;34101;53.430;-2.224;2023-08-06T08:01:44;101231.08;;;17.31;68.24
46682;BME280;34101;53.430;-2.224;2023-08-06T08:04:12;101229.16;;;17.50;67.34
46682;BME280;34101;53.430;-2.224;2023-08-06T08:06:39;101225.51;;;17.76;67.43
46682;BME280;34101;53.430;-2.224;2023-08-06T08:09:07;101225.41;;;17.91;65.54
46682;BME280;34101;53.430;-2.224;2023-08-06T08:11:34;101223.10;;;18.06;65.55
46682;BME280;34101;53.430;-2.224;2023-08-06T08:14:01;101229.82;;;18.23;64.88
46682;BME280;34101;53.430;-2.224;2023-08-06T08:16:29;101228.85;;;18.44;63.32
46682;BME280;34101;53.430;-2.224;2023-08-06T08:18:57;101236.54;;;18.62;63.35
46682;BME280;34101;53.430;-2.224;2023-08-06T08:21:25;101242.16;;;18.59;63.53
46682;BME280;34101;53.430;-2.224;2023-08-06T08:23:52;101241.94;;;18.81;62.88
46682;BME280;34101;53.430;-2.224;2023-08-06T08:26:19;101248.16;;;18.87;61.86
46682;BME280;34101;53.430;-2.224;2023-08-06T08:28:47;101251.86;;;19.01;62.16
46682;BME280;34101;53.430;-2.224;2023-08-06T08:31:14;101253.13;;;19.59;61.42
46682;BME280;34101;53.430;-2.224;2023-08-06T08:33:42;101248.94;;;20.24;59.30
46682;BME280;34101;53.430;-2.224;2023-08-06T08:36:09;101245.69;;;21.13;57.01
46682;BME280;34101;53.430;-2.224;2023-08-06T08:38:36;101243.38;;;21.93;54.20
46682;BME280;34101;53.430;-2.224;2023-08-06T08:41:04;101246.53;;;22.15;52.03
46682;BME280;34101;53.430;-2.224;2023-08-06T08:43:32;101244.36;;;22.83;50.70
46682;BME280;34101;53.430;-2.224;2023-08-06T08:46:01;101243.33;;;23.44;49.51
46682;BME280;34101;53.430;-2.224;2023-08-06T08:48:29;101246.81;;;23.92;47.93
46682;BME280;34101;53.430;-2.224;2023-08-06T08:50:57;101248.57;;;24.59;44.84
46682;BME280;34101;53.430;-2.224;2023-08-06T08:53:25;101251.04;;;25.00;43.50
46682;BME280;34101;53.430;-2.224;2023-08-06T08:55:54;101249.86;;;25.26;42.71
46682;BME280;34101;53.430;-2.224;2023-08-06T08:58:22;101252.84;;;24.75;41.97
46682;BME280;34101;53.430;-2.224;2023-08-06T09:00:51;101253.81;;;24.85;42.26
46682;BME280;34101;53.430;-2.224;2023-08-06T09:03:18;101256.88;;;24.79;42.24
46682;BME280;34101;53.430;-2.224;2023-08-06T09:05:49;101254.66;;;24.66;42.35
46682;BME280;34101;53.430;-2.224;2023-08-06T09:08:20;101254.41;;;24.40;41.82
46682;BME280;34101;53.430;-2.224;2023-08-06T09:10:48;101260.20;;;24.20;43.02
46682;BME280;34101;53.430;-2.224;2023-08-06T09:13:16;101262.78;;;24.01;43.23
46682;BME280;34101;53.430;-2.224;2023-08-06T09:15:43;101262.95;;;24.05;42.43
46682;BME280;34101;53.430;-2.224;2023-08-06T09:18:11;101263.66;;;24.42;42.19
46682;BME280;34101;53.430;-2.224;2023-08-06T09:20:39;101262.24;;;24.78;40.72
46682;BME280;34101;53.430;-2.224;2023-08-06T09:23:08;101259.37;;;24.68;41.23
46682;BME280;34101;53.430;-2.224;2023-08-06T09:25:40;101258.89;;;24.60;40.68
46682;BME280;34101;53.430;-2.224;2023-08-06T09:28:08;101258.99;;;24.79;38.57
46682;BME280;34101;53.430;-2.224;2023-08-06T09:30:37;101262.33;;;24.89;39.00
46682;BME280;34101;53.430;-2.224;2023-08-06T09:33:08;101264.44;;;25.26;39.10
46682;BME280;34101;53.430;-2.224;2023-08-06T09:35:36;101260.02;;;25.77;38.06
46682;BME280;34101;53.430;-2.224;2023-08-06T09:38:07;101258.66;;;26.36;37.76
46682;BME280;34101;53.430;-2.224;2023-08-06T09:40:36;101262.23;;;26.76;37.05
46682;BME280;34101;53.430;-2.224;2023-08-06T09:43:08;101266.33;;;26.57;36.87
46682;BME280;34101;53.430;-2.224;2023-08-06T09:45:37;101272.53;;;26.57;36.32
46682;BME280;34101;53.430;-2.224;2023-08-06T09:48:06;101267.90;;;27.09;34.54
46682;BME280;34101;53.430;-2.224;2023-08-06T09:50:35;101271.29;;;26.63;34.75
46682;BME280;34101;53.430;-2.224;2023-08-06T09:53:04;101275.72;;;26.90;34.31
46682;BME280;34101;53.430;-2.224;2023-08-06T09:55:32;101274.38;;;27.09;34.01
46682;BME280;34101;53.430;-2.224;2023-08-06T09:58:00;101278.74;;;27.69;33.48
46682;BME280;34101;53.430;-2.224;2023-08-06T10:00:28;101280.87;;;27.78;33.25
46682;BME280;34101;53.430;-2.224;2023-08-06T10:03:00;101277.24;;;28.08;32.80
46682;BME280;34101;53.430;-2.224;2023-08-06T10:05:27;101275.32;;;28.45;31.89
46682;BME280;34101;53.430;-2.224;2023-08-06T10:07:55;101285.17;;;28.83;31.12
46682;BME280;34101;53.430;-2.224;2023-08-06T10:10:25;101284.65;;;29.17;31.19
46682;BME280;34101;53.430;-2.224;2023-08-06T10:12:56;101282.34;;;28.75;31.33
46682;BME280;34101;53.430;-2.224;2023-08-06T10:15:28;101285.08;;;29.03;31.09
46682;BME280;34101;53.430;-2.224;2023-08-06T10:17:57;101290.42;;;29.48;30.88
46682;BME280;34101;53.430;-2.224;2023-08-06T10:20:24;101289.60;;;29.97;29.35
46682;BME280;34101;53.430;-2.224;2023-08-06T10:23:07;101286.25;;;29.81;29.59
46682;BME280;34101;53.430;-2.224;2023-08-06T10:25:39;101290.75;;;27.98;33.10
46682;BME280;34101;53.430;-2.224;2023-08-06T10:28:08;101293.51;;;28.02;32.81
46682;BME280;34101;53.430;-2.224;2023-08-06T10:30:42;101298.67;;;27.64;33.24
46682;BME280;34101;53.430;-2.224;2023-08-06T10:33:09;101301.90;;;26.28;34.84
46682;BME280;34101;53.430;-2.224;2023-08-06T10:35:38;101297.16;;;26.17;34.91
46682;BME280;34101;53.430;-2.224;2023-08-06T10:38:08;101299.85;;;25.88;35.97
46682;BME280;34101;53.430;-2.224;2023-08-06T10:40:36;101301.65;;;25.62;36.17
46682;BME280;34101;53.430;-2.224;2023-08-06T10:43:04;101302.67;;;25.48;36.71
46682;BME280;34101;53.430;-2.224;2023-08-06T10:45:34;101301.13;;;25.44;36.09
46682;BME280;34101;53.430;-2.224;2023-08-06T10:48:03;101298.69;;;25.46;36.15
46682;BME280;34101;53.430;-2.224;2023-08-06T10:50:31;101300.45;;;25.70;36.46
46682;BME280;34101;53.430;-2.224;2023-08-06T10:53:04;101306.18;;;25.06;39.63
46682;BME280;34101;53.430;-2.224;2023-08-06T10:55:32;101307.83;;;24.33;42.16
46682;BME280;34101;53.430;-2.224;2023-08-06T10:57:59;101308.07;;;24.04;42.85
46682;BME280;34101;53.430;-2.224;2023-08-06T11:00:27;101304.38;;;23.56;43.75
46682;BME280;34101;53.430;-2.224;2023-08-06T11:02:54;101304.92;;;22.63;46.52
46682;BME280;34101;53.430;-2.224;2023-08-06T11:05:22;101305.08;;;22.57;47.60
46682;BME280;34101;53.430;-2.224;2023-08-06T11:07:49;101305.22;;;22.51;46.64
46682;BME280;34101;53.430;-2.224;2023-08-06T11:10:17;101309.81;;;22.24;48.48
46682;BME280;34101;53.430;-2.224;2023-08-06T11:12:44;101307.67;;;21.98;49.62
46682;BME280;34101;53.430;-2.224;2023-08-06T11:15:11;101311.58;;;21.36;48.94
46682;BME280;34101;53.430;-2.224;2023-08-06T11:17:40;101310.67;;;21.40;49.00
46682;BME280;34101;53.430;-2.224;2023-08-06T11:20:09;101311.53;;;21.29;49.19
46682;BME280;34101;53.430;-2.224;2023-08-06T11:22:37;101312.37;;;21.27;49.94
46682;BME280;34101;53.430;-2.224;2023-08-06T11:25:06;101315.87;;;21.36;50.13
46682;BME280;34101;53.430;-2.224;2023-08-06T11:27:34;101314.49;;;21.30;50.82
46682;BME280;34101;53.430;-2.224;2023-08-06T11:30:01;101315.60;;;21.34;50.74
46682;BME280;34101;53.430;-2.224;2023-08-06T11:32:29;101315.55;;;21.43;50.41
46682;BME280;34101;53.430;-2.224;2023-08-06T11:34:56;101315.38;;;21.42;50.86
46682;BME280;34101;53.430;-2.224;2023-08-06T11:37:23;101315.01;;;21.30;51.44
46682;BME280;34101;53.430;-2.224;2023-08-06T11:39:51;101311.96;;;21.37;50.75
46682;BME280;34101;53.430;-2.224;2023-08-06T11:42:18;101309.54;;;21.61;48.09
46682;BME280;34101;53.430;-2.224;2023-08-06T11:44:46;101314.26;;;21.22;51.28
46682;BME280;34101;53.430;-2.224;2023-08-06T11:47:15;101313.28;;;21.26;52.01
46682;BME280;34101;53.430;-2.224;2023-08-06T11:49:45;101310.50;;;21.27;52.07
46682;BME280;34101;53.430;-2.224;2023-08-06T11:52:15;101310.15;;;20.90;53.16
46682;BME280;34101;53.430;-2.224;2023-08-06T11:54:42;101317.25;;;20.76;52.79
46682;BME280;34101;53.430;-2.224;2023-08-06T11:57:10;101321.90;;;20.54;52.33
46682;BME280;34101;53.430;-2.224;2023-08-06T11:59:38;101320.14;;;20.31;53.23
46682;BME280;34101;53.430;-2.224;2023-08-06T12:02:08;101323.20;;;20.21;54.13
46682;BME280;34101;53.430;-2.224;2023-08-06T12:04:58;101325.04;;;20.41;54.19
46682;BME280;34101;53.430;-2.224;2023-08-06T12:07:28;101323.68;;;20.52;52.94
46682;BME280;34101;53.430;-2.224;2023-08-06T12:09:55;101323.70;;;20.55;53.37
46682;BME280;34101;53.430;-2.224;2023-08-06T12:12:23;101322.42;;;20.18;54.14
46682;BME280;34101;53.430;-2.224;2023-08-06T12:14:50;101328.30;;;20.02;53.55
46682;BME280;34101;53.430;-2.224;2023-08-06T12:17:17;101328.53;;;20.08;53.63
46682;BME280;34101;53.430;-2.224;2023-08-06T12:19:45;101327.92;;;20.15;53.47
46682;BME280;34101;53.430;-2.224;2023-08-06T12:22:12;101332.08;;;20.05;54.49
46682;BME280;34101;53.430;-2.224;2023-08-06T12:24:40;101336.23;;;20.03;54.26
46682;BME280;34101;53.430;-2.224;2023-08-06T12:27:07;101338.55;;;19.97;54.95
46682;BME280;34101;53.430;-2.224;2023-08-06T12:29:34;101338.56;;;20.00;54.61
46682;BME280;34101;53.430;-2.224;2023-08-06T12:32:03;101341.60;;;20.12;54.24
46682;BME280;34101;53.430;-2.224;2023-08-06T12:34:31;101342.22;;;20.04;54.70
46682;BME280;34101;53.430;-2.224;2023-08-06T12:36:58;101344.02;;;20.07;54.03
46682;BME280;34101;53.430;-2.224;2023-08-06T12:39:26;101343.20;;;20.35;52.72
46682;BME280;34101;53.430;-2.224;2023-08-06T12:41:54;101342.46;;;20.47;52.10
46682;BME280;34101;53.430;-2.224;2023-08-06T12:44:21;101348.03;;;20.72;51.94